sensor_id;sensor_type;location;lat;lon;timestamp;temperature;humidity
55151;DHT22;41041;43.162;20.538;2023-02-28T05:52:40;102.60;2227.20
55151;DHT22;41041;43.162;20.538;2023-02-28T06:00:17;102.70;2227.20
55151;DHT22;41041;43.162;20.538;2023-02-28T06:02:43;102.70;2227.20
55151;DHT22;41041;43.162;20.538;2023-02-28T07:35:14;102.70;2227.20
55151;DHT22;41041;43.162;20.538;2023-02-28T07:37:41;102.70;2227.20
55151;DHT22;41041;43.162;20.538;2023-02-28T10:10:21;179.70;2252.80
55151;DHT22;41041;43.162;20.538;2023-02-28T10:12:47;179.30;2252.80
55151;DHT22;41041;43.162;20.538;2023-02-28T10:15:15;179.30;2252.80
55151;DHT22;41041;43.162;20.538;2023-02-28T10:17:45;179.40;2252.80
55151;DHT22;41041;43.162;20.538;2023-02-28T10:20:15;179.40;2252.80
55151;DHT22;41041;43.162;20.538;2023-02-28T16:40:39;179.50;2252.80
55151;DHT22;41041;43.162;20.538;2023-02-28T16:43:13;179.30;2252.80
55151;DHT22;41041;43.162;20.538;2023-02-28T16:45:40;179.20;2252.80
55151;DHT22;41041;43.162;20.538;2023-02-28T16:48:12;179.20;2252.80
55151;DHT22;41041;43.162;20.538;2023-02-28T16:50:40;154.50;2252.80
55151;DHT22;41041;43.162;20.538;2023-02-28T16:53:06;179.20;2252.80
55151;DHT22;41041;43.162;20.538;2023-02-28T16:55:32;179.50;2252.80
55151;DHT22;41041;43.162;20.538;2023-02-28T17:00:32;179.30;2252.80
55151;DHT22;41041;43.162;20.538;2023-02-28T17:02:58;154.50;2252.80
55151;DHT22;41041;43.162;20.538;2023-02-28T17:05:32;154.30;2252.80
55151;DHT22;41041;43.162;20.538;2023-02-28T17:07:59;154.10;2252.80
55151;DHT22;41041;43.162;20.538;2023-02-28T17:10:26;154.30;2252.80
55151;DHT22;41041;43.162;20.538;2023-02-28T17:27:50;153.80;2252.80
55151;DHT22;41041;43.162;20.538;2023-02-28T17:30:22;153.70;2252.80
55151;DHT22;41041;43.162;20.538;2023-02-28T17:32:48;153.70;2252.80
55151;DHT22;41041;43.162;20.538;2023-02-28T18:44:16;128.30;2252.80
55151;DHT22;41041;43.162;20.538;2023-02-28T19:07:41;128.10;2252.80
55151;DHT22;41041;43.162;20.538;2023-02-28T19:20:15;103.20;2227.20
55151;DHT22;41041;43.162;20.538;2023-02-28T19:22:41;128.00;2252.80
55151;DHT22;41041;43.162;20.538;2023-02-28T19:28:11;103.30;2227.20
55151;DHT22;41041;43.162;20.538;2023-02-28T19:30:37;103.20;2227.20
55151;DHT22;41041;43.162;20.538;2023-02-28T20:04:52;128.40;2252.80
55151;DHT22;41041;43.162;20.538;2023-02-28T20:24:49;128.20;2252.80
55151;DHT22;41041;43.162;20.538;2023-02-28T20:27:15;128.30;2252.80
55151;DHT22;41041;43.162;20.538;2023-02-28T20:29:41;128.30;2252.80
55151;DHT22;41041;43.162;20.538;2023-02-28T20:32:07;128.20;2252.80
55151;DHT22;41041;43.162;20.538;2023-02-28T20:34:33;128.10;2252.80
55151;DHT22;41041;43.162;20.538;2023-02-28T20:36:59;128.10;2252.80
55151;DHT22;41041;43.162;20.538;2023-02-28T20:39:25;103.30;2227.20
55151;DHT22;41041;43.162;20.538;2023-02-28T20:41:51;128.00;2252.80
55151;DHT22;41041;43.162;20.538;2023-02-28T20:44:16;128.10;2252.80
55151;DHT22;41041;43.162;20.538;2023-02-28T20:46:42;128.10;2252.80
55151;DHT22;41041;43.162;20.538;2023-02-28T20:49:27;128.10;2252.80
55151;DHT22;41041;43.162;20.538;2023-02-28T20:51:53;103.30;2227.20
55151;DHT22;41041;43.162;20.538;2023-02-28T20:58:01;103.30;2227.20
55151;DHT22;41041;43.162;20.538;2023-02-28T21:00:26;103.30;2227.20
55151;DHT22;41041;43.162;20.538;2023-02-28T21:02:52;128.00;2252.80
55151;DHT22;41041;43.162;20.538;2023-02-28T21:08:41;128.00;2252.80
55151;DHT22;41041;43.162;20.538;2023-02-28T21:11:21;128.20;2252.80
55151;DHT22;41041;43.162;20.538;2023-02-28T21:13:49;128.00;2252.80
55151;DHT22;41041;43.162;20.538;2023-02-28T21:16:17;128.10;2252.80
55151;DHT22;41041;43.162;20.538;2023-02-28T21:18:45;128.30;2252.80
55151;DHT22;41041;43.162;20.538;2023-02-28T21:21:13;128.50;2252.80
55151;DHT22;41041;43.162;20.538;2023-02-28T21:23:40;128.80;2252.80
55151;DHT22;41041;43.162;20.538;2023-02-28T21:26:11;153.60;2252.80
55151;DHT22;41041;43.162;20.538;2023-02-28T21:28:38;128.70;2252.80
55151;DHT22;41041;43.162;20.538;2023-02-28T21:31:11;128.40;2252.80
55151;DHT22;41041;43.162;20.538;2023-02-28T21:33:37;128.10;2252.80
55151;DHT22;41041;43.162;20.538;2023-02-28T21:36:06;128.30;2252.80
55151;DHT22;41041;43.162;20.538;2023-02-28T21:38:34;128.40;2252.80
55151;DHT22;41041;43.162;20.538;2023-02-28T21:41:05;128.50;2252.80
55151;DHT22;41041;43.162;20.538;2023-02-28T21:43:31;128.20;2252.80
55151;DHT22;41041;43.162;20.538;2023-02-28T21:49:20;128.30;2252.80
55151;DHT22;41041;43.162;20.538;2023-02-28T21:51:45;128.30;2252.80
55151;DHT22;41041;43.162;20.538;2023-02-28T21:54:12;128.40;2252.80
55151;DHT22;41041;43.162;20.538;2023-02-28T21:56:38;128.40;2252.80
55151;DHT22;41041;43.162;20.538;2023-02-28T21:59:04;128.40;2252.80
55151;DHT22;41041;43.162;20.538;2023-02-28T22:01:42;128.60;2252.80
55151;DHT22;41041;43.162;20.538;2023-02-28T22:04:13;128.50;2252.80
55151;DHT22;41041;43.162;20.538;2023-02-28T22:06:54;128.40;2252.80
55151;DHT22;41041;43.162;20.538;2023-02-28T22:09:23;128.50;2252.80
55151;DHT22;41041;43.162;20.538;2023-02-28T22:11:49;128.40;2252.80
55151;DHT22;41041;43.162;20.538;2023-02-28T22:14:15;128.40;2252.80
55151;DHT22;41041;43.162;20.538;2023-02-28T22:16:41;128.70;2252.80
55151;DHT22;41041;43.162;20.538;2023-02-28T22:26:27;153.70;2252.80
55151;DHT22;41041;43.162;20.538;2023-02-28T22:28:53;153.60;2252.80
55151;DHT22;41041;43.162;20.538;2023-02-28T22:31:26;128.50;2252.80
55151;DHT22;41041;43.162;20.538;2023-02-28T22:33:54;128.40;2252.80
55151;DHT22;41041;43.162;20.538;2023-02-28T22:36:21;128.80;2252.80
55151;DHT22;41041;43.162;20.538;2023-02-28T22:38:48;153.60;2252.80
55151;DHT22;41041;43.162;20.538;2023-02-28T22:41:15;128.90;2252.80
55151;DHT22;41041;43.162;20.538;2023-02-28T22:47:03;128.40;2252.80
55151;DHT22;41041;43.162;20.538;2023-02-28T22:49:29;128.50;2252.80
55151;DHT22;41041;43.162;20.538;2023-02-28T22:51:55;128.60;2252.80
55151;DHT22;41041;43.162;20.538;2023-02-28T22:54:21;128.60;2252.80
55151;DHT22;41041;43.162;20.538;2023-02-28T22:56:46;128.60;2252.80
55151;DHT22;41041;43.162;20.538;2023-02-28T22:59:13;128.60;2252.80
55151;DHT22;41041;43.162;20.538;2023-02-28T23:01:40;128.60;2252.80
55151;DHT22;41041;43.162;20.538;2023-02-28T23:04:08;128.60;2252.80
55151;DHT22;41041;43.162;20.538;2023-02-28T23:06:39;128.60;2252.80
55151;DHT22;41041;43.162;20.538;2023-02-28T23:09:10;128.40;2252.80
55151;DHT22;41041;43.162;20.538;2023-02-28T23:11:44;128.50;2252.80
55151;DHT22;41041;43.162;20.538;2023-02-28T23:14:11;128.40;2252.80
55151;DHT22;41041;43.162;20.538;2023-02-28T23:20:01;128.20;2252.80
55151;DHT22;41041;43.162;20.538;2023-02-28T23:22:26;128.10;2252.80
55151;DHT22;41041;43.162;20.538;2023-02-28T23:24:52;128.10;2252.80
55151;DHT22;41041;43.162;20.538;2023-02-28T23:27:18;128.30;2252.80
55151;DHT22;41041;43.162;20.538;2023-02-28T23:29:44;128.00;2252.80
55151;DHT22;41041;43.162;20.538;2023-02-28T23:32:10;128.10;2252.80
55151;DHT22;41041;43.162;20.538;2023-02-28T23:34:36;128.20;2252.80
55151;DHT22;41041;43.162;20.538;2023-02-28T23:37:02;103.30;2227.20
55151;DHT22;41041;43.162;20.538;2023-02-28T23:39:29;128.00;2252.80
55151;DHT22;41041;43.162;20.538;2023-02-28T23:41:55;103.30;2227.20
55151;DHT22;41041;43.162;20.538;2023-02-28T23:44:21;103.30;2227.20
55151;DHT22;41041;43.162;20.538;2023-02-28T23:46:49;103.20;2227.20
55151;DHT22;41041;43.162;20.538;2023-02-28T23:49:16;103.20;2227.20
55151;DHT22;41041;43.162;20.538;2023-02-28T23:51:45;103.30;2227.20
55151;DHT22;41041;43.162;20.538;2023-02-28T23:54:11;128.00;2252.80
55151;DHT22;41041;43.162;20.538;2023-02-28T23:56:37;128.00;2252.80
55151;DHT22;41041;43.162;20.538;2023-02-28T23:59:03;103.30;2227.20
